createdAt,value
2022-12-08T00:02:44.393Z,4.82
2022-12-08T00:06:08.077Z,4.75
2022-12-08T00:09:23.335Z,5.20
2022-12-08T00:12:30.266Z,5.10
2022-12-08T00:15:34.651Z,5.03
2022-12-08T00:18:38.645Z,5.53
2022-12-08T00:21:42.796Z,5.57
2022-12-08T00:24:46.960Z,5.78
2022-12-08T00:27:50.924Z,4.93
2022-12-08T00:30:54.746Z,5.45
2022-12-08T00:33:59.040Z,5.60
2022-12-08T00:37:03.180Z,5.55
2022-12-08T00:40:08.098Z,5.35
2022-12-08T00:43:12.617Z,5.13
2022-12-08T00:46:16.711Z,5.22
2022-12-08T00:49:20.849Z,4.88
2022-12-08T00:52:24.797Z,5.43
2022-12-08T00:55:28.605Z,5.38
2022-12-08T00:58:32.589Z,5.40
2022-12-08T01:01:37.081Z,5.68
2022-12-08T01:04:41.743Z,5.35
2022-12-08T01:07:46.005Z,6.30
2022-12-08T01:10:50.246Z,5.13
2022-12-08T01:13:54.538Z,5.60
2022-12-08T01:16:58.819Z,6.22
2022-12-08T01:20:03.393Z,5.85
2022-12-08T01:23:07.512Z,5.70
2022-12-08T01:26:14.354Z,5.75
2022-12-08T01:29:19.318Z,5.05
2022-12-08T01:32:23.321Z,5.40
2022-12-08T01:35:27.295Z,5.07
2022-12-08T01:38:31.772Z,5.60
2022-12-08T01:41:37.626Z,4.93
2022-12-08T01:44:41.698Z,5.18
2022-12-08T01:47:49.576Z,4.93
2022-12-08T01:50:55.721Z,4.93
2022-12-08T01:53:59.868Z,4.88
2022-12-08T01:57:35.261Z,5.18
2022-12-08T02:00:40.138Z,4.63
2022-12-08T02:03:50.890Z,4.70
2022-12-08T02:06:55.342Z,5.32
2022-12-08T02:09:59.340Z,5.05
2022-12-08T02:13:06.851Z,4.78
2022-12-08T02:16:29.185Z,4.82
2022-12-08T02:19:48.639Z,4.40
2022-12-08T02:23:13.094Z,4.70
2022-12-08T02:26:26.282Z,4.50
2022-12-08T02:30:07.497Z,4.47
2022-12-08T02:33:48.968Z,4.97
2022-12-08T02:36:59.298Z,4.20
2022-12-08T02:40:10.174Z,4.50
2022-12-08T02:43:34.778Z,4.75
2022-12-08T02:46:47.161Z,4.40
2022-12-08T02:49:50.934Z,4.85
2022-12-08T02:52:55.097Z,4.65
2022-12-08T02:56:11.295Z,4.55
2022-12-08T02:59:21.262Z,4.88
2022-12-08T03:02:50.175Z,5.00
2022-12-08T03:06:05.611Z,4.53
2022-12-08T03:09:21.487Z,4.60
2022-12-08T03:12:43.614Z,4.70
2022-12-08T03:15:50.902Z,4.78
2022-12-08T03:19:01.652Z,4.60
2022-12-08T03:22:07.135Z,5.15
2022-12-08T03:25:14.576Z,4.72
2022-12-08T03:28:18.731Z,4.80
2022-12-08T03:31:26.812Z,4.15
2022-12-08T03:34:31.535Z,4.57
2022-12-08T03:37:38.008Z,4.70
2022-12-08T03:40:43.568Z,4.45
2022-12-08T03:43:53.279Z,5.00
2022-12-08T03:46:57.364Z,4.88
2022-12-08T03:50:01.269Z,5.28
2022-12-08T03:53:06.254Z,4.80
2022-12-08T03:56:27.422Z,4.93
2022-12-08T03:59:31.821Z,4.65
2022-12-08T04:02:36.245Z,4.82
2022-12-08T04:05:40.247Z,4.68
2022-12-08T04:08:44.159Z,5.20
2022-12-08T04:11:49.297Z,4.93
2022-12-08T04:14:53.316Z,5.38
2022-12-08T04:17:57.542Z,5.35
2022-12-08T04:21:02.140Z,5.43
2022-12-08T04:24:06.633Z,5.50
2022-12-08T04:27:10.620Z,5.60
2022-12-08T04:30:14.868Z,5.03
2022-12-08T04:33:19.098Z,5.10
2022-12-08T04:36:23.029Z,5.43
2022-12-08T04:39:27.061Z,5.50
2022-12-08T04:42:31.021Z,5.38
2022-12-08T04:45:35.123Z,5.57
2022-12-08T04:48:40.299Z,5.47
2022-12-08T04:51:44.393Z,5.30
2022-12-08T04:54:48.807Z,5.63
2022-12-08T04:57:52.952Z,5.50
2022-12-08T05:00:57.317Z,5.72
2022-12-08T05:04:01.376Z,5.68
2022-12-08T05:07:05.370Z,6.10
2022-12-08T05:10:09.846Z,6.03
2022-12-08T05:13:13.734Z,5.85
2022-12-08T05:16:17.647Z,7.22
2022-12-08T05:19:21.473Z,6.45
2022-12-08T05:22:25.659Z,6.63
2022-12-08T05:25:29.718Z,6.93
2022-12-08T05:28:43.014Z,6.38
2022-12-08T05:37:55.579Z,6.78
2022-12-08T05:40:59.704Z,6.93
2022-12-08T05:44:05.960Z,6.60
2022-12-08T05:47:09.980Z,7.10
2022-12-08T05:50:14.368Z,6.72
2022-12-08T05:53:20.060Z,6.95
2022-12-08T05:56:24.064Z,6.88
2022-12-08T05:59:28.055Z,6.57
2022-12-08T06:02:32.451Z,6.50
2022-12-08T06:05:36.433Z,7.63
2022-12-08T06:08:40.429Z,7.25
2022-12-08T06:11:46.366Z,6.25
2022-12-08T06:14:50.200Z,7.43
2022-12-08T06:17:54.204Z,6.78
2022-12-08T06:21:09.558Z,7.47
2022-12-08T06:24:13.623Z,7.07
2022-12-08T06:27:17.913Z,7.10
2022-12-08T06:30:22.037Z,7.22
2022-12-08T06:33:26.671Z,7.57
2022-12-08T06:36:30.594Z,7.03
2022-12-08T06:39:34.774Z,7.60
2022-12-08T06:42:44.994Z,7.57
2022-12-08T06:45:49.482Z,7.63
2022-12-08T06:48:54.230Z,7.60
2022-12-08T06:51:58.654Z,7.90
2022-12-08T06:55:03.302Z,7.93
2022-12-08T06:58:07.249Z,7.30
2022-12-08T07:01:12.857Z,7.60
2022-12-08T07:04:17.596Z,7.53
2022-12-08T07:07:21.821Z,7.82
2022-12-08T07:10:26.539Z,8.02
2022-12-08T07:13:30.505Z,7.47
2022-12-08T07:16:34.733Z,7.40
2022-12-08T07:19:38.971Z,7.32
2022-12-08T07:22:51.178Z,6.95
2022-12-08T07:25:55.279Z,6.97
2022-12-08T07:29:00.123Z,6.80
2022-12-08T07:32:04.159Z,6.22
2022-12-08T07:35:09.210Z,6.55
2022-12-08T07:38:13.294Z,6.82
2022-12-08T07:41:19.207Z,6.32
2022-12-08T07:44:24.332Z,6.10
2022-12-08T07:47:28.513Z,5.63
2022-12-08T07:50:32.758Z,6.00
2022-12-08T07:53:36.792Z,5.60
2022-12-08T07:56:40.684Z,6.20
2022-12-08T07:59:44.684Z,5.43
2022-12-08T08:02:48.576Z,6.40
2022-12-08T08:05:53.515Z,5.97
2022-12-08T08:08:57.493Z,5.85
2022-12-08T08:12:29.662Z,5.35
2022-12-08T08:18:30.000Z,5.03
2022-12-08T08:21:45.576Z,5.32
2022-12-08T08:24:50.043Z,6.05
2022-12-08T08:27:54.378Z,5.38
2022-12-08T08:30:59.185Z,5.25
2022-12-08T08:34:06.151Z,5.25
2022-12-08T08:37:10.883Z,4.68
2022-12-08T08:40:15.172Z,4.90
2022-12-08T08:43:37.853Z,4.70
2022-12-08T08:46:42.315Z,4.63
2022-12-08T08:49:46.379Z,4.78
2022-12-08T08:52:50.704Z,4.75
2022-12-08T08:55:54.733Z,4.68
2022-12-08T08:58:58.753Z,4.10
2022-12-08T09:02:02.903Z,4.38
2022-12-08T09:05:07.413Z,4.95
2022-12-08T09:08:11.788Z,4.05
2022-12-08T09:11:18.638Z,4.35
2022-12-08T09:14:23.734Z,3.92
2022-12-08T09:17:27.576Z,3.97
2022-12-08T09:20:31.647Z,4.13
2022-12-08T09:23:36.030Z,4.53
2022-12-08T09:26:40.046Z,4.20
2022-12-08T09:29:44.345Z,4.05
2022-12-08T09:32:48.641Z,4.70
2022-12-08T09:35:52.501Z,4.72
2022-12-08T09:38:57.203Z,4.63
2022-12-08T09:42:04.049Z,5.10
2022-12-08T09:45:12.667Z,4.95
2022-12-08T09:48:24.196Z,5.00
2022-12-08T09:51:33.151Z,5.68
2022-12-08T09:54:36.983Z,5.97
2022-12-08T09:57:41.355Z,6.13
2022-12-08T10:00:45.882Z,6.85
2022-12-08T10:03:50.323Z,6.30
2022-12-08T10:07:18.558Z,6.20
2022-12-08T10:10:46.719Z,6.00
2022-12-08T10:14:12.023Z,6.90
2022-12-08T10:17:26.052Z,6.72
2022-12-08T10:20:40.204Z,6.63
2022-12-08T10:23:55.539Z,7.07
2022-12-08T10:27:01.470Z,7.00
2022-12-08T10:30:13.662Z,6.93
2022-12-08T10:33:19.973Z,6.55
2022-12-08T10:36:44.427Z,7.25
2022-12-08T10:40:00.366Z,6.45
2022-12-08T10:43:06.901Z,6.63
2022-12-08T10:46:17.112Z,6.80
2022-12-08T10:49:28.903Z,6.38
2022-12-08T10:52:38.291Z,6.78
2022-12-08T10:55:51.594Z,6.15
2022-12-08T10:59:17.915Z,6.22
2022-12-08T11:02:22.793Z,6.10
2022-12-08T11:05:35.706Z,6.57
2022-12-08T11:09:08.652Z,6.57
2022-12-08T11:12:17.078Z,6.43
2022-12-08T11:15:21.833Z,6.30
2022-12-08T11:18:29.241Z,6.57
2022-12-08T11:21:37.327Z,6.47
2022-12-08T11:24:41.335Z,6.80
2022-12-08T11:27:48.117Z,6.00
2022-12-08T11:31:00.682Z,6.18
2022-12-08T11:34:06.314Z,5.93
2022-12-08T11:37:34.747Z,6.97
2022-12-08T11:40:42.123Z,6.07
2022-12-08T11:43:59.564Z,5.95
2022-12-08T11:47:10.658Z,6.10
2022-12-08T11:50:28.392Z,5.50
2022-12-08T11:53:49.841Z,5.97
2022-12-08T11:56:56.714Z,5.72
2022-12-08T12:00:03.735Z,5.55
2022-12-08T12:03:23.500Z,5.93
2022-12-08T12:07:09.386Z,5.50
2022-12-08T12:10:28.802Z,5.22
2022-12-08T12:13:51.839Z,5.38
2022-12-08T12:17:36.317Z,5.43
2022-12-08T12:20:49.095Z,4.95
2022-12-08T12:24:04.780Z,5.30
2022-12-08T12:27:15.349Z,5.10
2022-12-08T12:30:27.325Z,5.25
2022-12-08T12:33:32.800Z,4.97
2022-12-08T12:37:03.500Z,4.72
2022-12-08T12:40:20.554Z,5.78
2022-12-08T12:43:30.924Z,5.53
2022-12-08T12:46:54.660Z,5.32
2022-12-08T12:50:07.620Z,5.22
2022-12-08T12:53:18.951Z,5.47
2022-12-08T12:56:52.919Z,6.05
2022-12-08T13:03:03.861Z,5.50
2022-12-08T13:06:14.653Z,5.50
2022-12-08T13:09:28.892Z,4.90
2022-12-08T13:12:32.793Z,5.60
2022-12-08T13:15:47.023Z,5.15
2022-12-08T13:18:56.026Z,4.53
2022-12-08T13:22:00.623Z,4.78
2022-12-08T13:25:38.868Z,4.95
2022-12-08T13:29:01.324Z,5.78
2022-12-08T13:32:08.722Z,4.70
2022-12-08T13:35:12.854Z,4.70
2022-12-08T13:38:20.618Z,4.90
2022-12-08T13:41:49.405Z,5.05
2022-12-08T13:56:51.401Z,4.68
2022-12-08T13:59:27.984Z,4.57
2022-12-08T14:02:47.049Z,4.78
2022-12-08T14:09:21.141Z,4.63
2022-12-08T14:12:27.900Z,5.18
2022-12-08T14:15:38.522Z,5.07
2022-12-08T14:18:42.805Z,5.78
2022-12-08T14:22:06.226Z,5.57
2022-12-08T14:25:15.961Z,6.15
2022-12-08T14:28:20.041Z,5.47
2022-12-08T14:31:23.995Z,5.82
2022-12-08T14:34:27.992Z,5.80
2022-12-08T14:37:34.138Z,5.38
2022-12-08T14:40:41.627Z,5.07
2022-12-08T14:43:45.824Z,5.05
2022-12-08T14:47:21.059Z,4.88
2022-12-08T14:50:39.330Z,5.15
2022-12-08T14:54:13.309Z,5.30
2022-12-08T15:00:23.270Z,4.90
2022-12-08T15:03:29.943Z,5.43
2022-12-08T15:06:34.755Z,5.22
2022-12-08T15:09:42.051Z,5.55
2022-12-08T15:13:10.621Z,5.43
2022-12-08T15:16:28.146Z,5.18
2022-12-08T15:19:33.993Z,5.30
2022-12-08T15:22:38.965Z,5.35
2022-12-08T15:25:43.116Z,5.95
2022-12-08T15:28:47.263Z,4.82
2022-12-08T15:31:53.715Z,6.13
2022-12-08T15:34:58.020Z,5.65
2022-12-08T15:38:02.224Z,4.97
2022-12-08T15:41:11.521Z,4.90
2022-12-08T15:44:18.453Z,5.38
2022-12-08T15:47:24.745Z,5.47
2022-12-08T15:50:29.068Z,4.82
2022-12-08T15:53:33.415Z,4.78
2022-12-08T15:57:17.485Z,5.25
2022-12-08T16:07:29.110Z,4.35
2022-12-08T16:11:00.721Z,4.07
2022-12-08T16:14:12.254Z,3.83
2022-12-08T16:17:21.902Z,4.13
2022-12-08T16:20:43.911Z,3.70
2022-12-08T16:23:50.161Z,3.45
2022-12-08T16:27:58.847Z,3.92
2022-12-08T16:30:20.181Z,3.80
2022-12-08T16:33:24.488Z,3.70
2022-12-08T16:36:28.538Z,4.07
2022-12-08T16:39:32.421Z,2.90
2022-12-08T16:42:39.634Z,2.50
2022-12-08T16:45:45.177Z,2.30
2022-12-08T16:48:49.837Z,1.70
2022-12-08T16:51:54.128Z,1.25
2022-12-08T16:54:58.419Z,1.50
2022-12-08T16:58:03.565Z,1.20
2022-12-08T17:01:11.221Z,1.60
2022-12-08T17:04:31.048Z,1.33
2022-12-08T17:07:36.761Z,1.17
2022-12-08T17:10:41.762Z,1.35
2022-12-08T17:13:45.960Z,2.15
2022-12-08T17:16:50.296Z,2.83
2022-12-08T17:19:54.357Z,2.00
2022-12-08T17:22:58.713Z,1.80
2022-12-08T17:26:03.662Z,1.50
2022-12-08T17:29:07.790Z,1.45
2022-12-08T17:32:12.021Z,1.40
2022-12-08T17:35:16.199Z,1.40
2022-12-08T17:38:22.361Z,1.60
2022-12-08T17:41:26.569Z,1.33
2022-12-08T17:44:31.806Z,1.52
2022-12-08T17:47:36.926Z,1.58
2022-12-08T17:50:44.874Z,1.40
2022-12-08T17:53:48.813Z,1.48
2022-12-08T17:56:53.352Z,1.50
2022-12-08T17:59:57.620Z,1.30
2022-12-08T18:03:01.844Z,1.52
2022-12-08T18:06:10.752Z,1.67
2022-12-08T18:09:15.499Z,1.50
2022-12-08T18:12:23.363Z,1.90
2022-12-08T18:15:28.488Z,3.25
2022-12-08T18:18:32.503Z,2.60
2022-12-08T18:21:36.777Z,2.30
2022-12-08T18:24:40.809Z,2.10
2022-12-08T18:27:45.205Z,2.65
2022-12-08T18:30:49.574Z,2.83
2022-12-08T18:33:53.747Z,3.90
2022-12-08T18:36:58.123Z,3.30
2022-12-08T18:40:02.310Z,2.70
2022-12-08T18:43:06.460Z,2.90
2022-12-08T18:46:13.542Z,3.25
2022-12-08T18:49:19.122Z,3.22
2022-12-08T18:52:30.976Z,3.28
2022-12-08T18:55:37.641Z,3.25
2022-12-08T18:58:41.872Z,3.70
2022-12-08T19:01:45.766Z,3.60
2022-12-08T19:04:49.962Z,3.95
2022-12-08T19:07:54.326Z,4.30
2022-12-08T19:10:59.274Z,4.20
2022-12-08T19:14:03.484Z,4.78
2022-12-08T19:17:08.063Z,4.60
2022-12-08T19:20:12.776Z,5.22
2022-12-08T19:23:17.058Z,5.28
2022-12-08T19:26:22.197Z,5.38
2022-12-08T19:29:29.802Z,5.35
2022-12-08T19:32:34.266Z,5.35
2022-12-08T19:35:38.633Z,6.13
2022-12-08T19:39:01.380Z,6.05
2022-12-08T19:42:38.677Z,6.57
2022-12-08T19:45:44.956Z,6.10
2022-12-08T19:48:49.055Z,6.35
2022-12-08T19:51:53.429Z,6.32
2022-12-08T19:54:57.690Z,5.60
2022-12-08T19:58:03.277Z,5.65
2022-12-08T20:01:07.119Z,5.50
2022-12-08T20:04:16.358Z,5.00
2022-12-08T20:07:20.967Z,5.20
2022-12-08T20:10:33.712Z,5.57
2022-12-08T20:13:47.986Z,5.97
2022-12-08T20:16:52.339Z,5.55
2022-12-08T20:19:56.415Z,4.95
2022-12-08T20:23:00.251Z,4.70
2022-12-08T20:26:06.798Z,4.38
2022-12-08T20:29:10.757Z,4.40
2022-12-08T20:32:15.295Z,3.70
2022-12-08T20:35:19.226Z,3.90
2022-12-08T20:38:23.287Z,3.13
2022-12-08T20:41:27.353Z,3.00
2022-12-08T20:44:31.307Z,3.53
2022-12-08T20:47:36.489Z,2.97
2022-12-08T20:50:40.716Z,3.05
2022-12-08T20:53:45.778Z,3.67
2022-12-08T20:56:49.956Z,3.40
2022-12-08T20:59:54.013Z,3.58
2022-12-08T21:02:58.229Z,3.13
2022-12-08T21:06:03.254Z,3.28
2022-12-08T21:09:07.362Z,3.67
2022-12-08T21:12:11.595Z,3.78
2022-12-08T21:15:15.921Z,3.95
2022-12-08T21:18:20.603Z,4.00
2022-12-08T21:21:27.451Z,4.07
2022-12-08T21:24:34.193Z,4.40
2022-12-08T21:27:39.996Z,4.20
2022-12-08T21:30:44.428Z,4.72
2022-12-08T21:33:49.201Z,5.25
2022-12-08T21:36:53.547Z,5.00
2022-12-08T21:39:57.895Z,5.32
2022-12-08T21:43:03.744Z,5.05
2022-12-08T21:46:16.202Z,5.22
2022-12-08T21:49:20.527Z,5.50
2022-12-08T21:52:25.401Z,5.28
2022-12-08T21:55:29.393Z,5.72
2022-12-08T21:58:33.767Z,6.20
2022-12-08T22:01:38.214Z,6.82
2022-12-08T22:04:42.776Z,6.30
2022-12-08T22:07:47.177Z,6.32
2022-12-08T22:10:51.734Z,6.05
2022-12-08T22:13:56.115Z,5.85
2022-12-08T22:17:00.553Z,5.88
2022-12-08T22:20:07.245Z,5.93
2022-12-08T22:23:11.884Z,6.53
2022-12-08T22:26:15.997Z,6.22
2022-12-08T22:29:20.323Z,6.22
2022-12-08T22:32:24.763Z,5.40
2022-12-08T22:35:28.856Z,5.32
2022-12-08T22:38:33.983Z,6.13
2022-12-08T22:41:38.236Z,6.15
2022-12-08T22:44:42.435Z,6.28
2022-12-08T22:47:46.543Z,5.97
2022-12-08T22:50:51.030Z,5.55
2022-12-08T22:53:55.034Z,6.65
2022-12-08T22:56:59.247Z,6.90
2022-12-08T23:00:06.030Z,7.25
2022-12-08T23:03:10.740Z,7.72
2022-12-08T23:06:14.879Z,8.75
2022-12-08T23:09:19.128Z,8.60
2022-12-08T23:12:23.577Z,8.75
2022-12-08T23:15:28.087Z,8.15
2022-12-08T23:18:32.307Z,7.63
2022-12-08T23:21:36.487Z,8.23
2022-12-08T23:24:40.554Z,7.68
2022-12-08T23:27:45.253Z,7.90
2022-12-08T23:30:49.271Z,8.15
2022-12-08T23:33:54.271Z,8.00
2022-12-08T23:36:58.559Z,7.65
2022-12-08T23:40:02.998Z,7.65
2022-12-08T23:43:07.088Z,8.57
2022-12-08T23:46:12.306Z,8.85
2022-12-08T23:49:16.594Z,8.05
2022-12-08T23:52:20.740Z,8.13
2022-12-08T23:55:25.675Z,9.05
2022-12-08T23:58:31.463Z,9.38
